createdAt,value
2022-09-04T00:01:19.901Z,16.30
2022-09-04T00:06:35.393Z,16.30
2022-09-04T00:09:12.275Z,16.20
2022-09-04T00:12:05.872Z,16.20
2022-09-04T00:14:50.414Z,16.20
2022-09-04T00:17:37.597Z,16.10
2022-09-04T00:20:25.662Z,16.20
2022-09-04T00:23:18.493Z,16.10
2022-09-04T00:28:27.057Z,16.00
2022-09-04T00:31:34.185Z,16.00
2022-09-04T00:34:13.981Z,15.90
2022-09-04T00:36:50.209Z,15.80
2022-09-04T00:39:36.269Z,15.80
2022-09-04T00:42:31.589Z,15.80
2022-09-04T00:45:34.019Z,15.90
2022-09-04T00:48:47.799Z,15.80
2022-09-04T00:51:40.533Z,15.70
2022-09-04T00:54:39.086Z,15.70
2022-09-04T00:58:10.272Z,15.60
2022-09-04T01:00:39.294Z,15.60
2022-09-04T01:03:24.066Z,15.60
2022-09-04T01:06:09.439Z,15.50
2022-09-04T01:08:46.778Z,15.50
2022-09-04T01:11:45.418Z,15.40
2022-09-04T01:14:40.325Z,15.30
2022-09-04T01:17:41.187Z,15.40
2022-09-04T01:20:51.510Z,15.30
2022-09-04T01:23:53.107Z,15.30
2022-09-04T01:26:48.257Z,15.30
2022-09-04T01:32:29.854Z,15.30
2022-09-04T01:35:15.396Z,15.20
2022-09-04T01:38:24.974Z,15.20
2022-09-04T01:41:22.656Z,15.10
2022-09-04T01:43:52.097Z,15.20
2022-09-04T01:47:11.078Z,15.10
2022-09-04T01:49:47.717Z,14.90
2022-09-04T01:52:48.712Z,14.70
2022-09-04T01:55:30.957Z,14.90
2022-09-04T01:58:17.665Z,14.90
2022-09-04T02:01:12.266Z,14.80
2022-09-04T02:04:12.166Z,14.80
2022-09-04T02:07:33.333Z,14.80
2022-09-04T02:10:43.113Z,14.80
2022-09-04T02:16:31.186Z,14.90
2022-09-04T02:19:47.806Z,14.90
2022-09-04T02:22:53.091Z,14.80
2022-09-04T02:28:37.418Z,14.80
2022-09-04T02:31:29.766Z,14.90
2022-09-04T02:34:29.817Z,14.80
2022-09-04T02:37:30.779Z,14.80
2022-09-04T02:40:12.098Z,14.80
2022-09-04T02:45:39.967Z,14.70
2022-09-04T02:48:35.266Z,14.70
2022-09-04T02:51:21.424Z,14.60
2022-09-04T02:54:01.621Z,14.60
2022-09-04T02:57:24.489Z,14.70
2022-09-04T03:00:15.425Z,14.60
2022-09-04T03:03:18.964Z,14.50
2022-09-04T03:06:04.749Z,14.60
2022-09-04T03:08:53.403Z,14.60
2022-09-04T03:11:55.757Z,14.60
2022-09-04T03:14:36.946Z,14.60
2022-09-04T03:17:39.838Z,14.70
2022-09-04T03:20:24.217Z,14.60
2022-09-04T03:23:20.797Z,14.60
2022-09-04T03:26:22.803Z,14.60
2022-09-04T03:29:15.076Z,14.50
2022-09-04T03:32:16.416Z,14.50
2022-09-04T03:35:15.555Z,14.40
2022-09-04T03:38:03.677Z,16.00
2022-09-04T03:43:33.324Z,14.40
2022-09-04T03:46:06.858Z,14.40
2022-09-04T03:49:21.313Z,14.40
2022-09-04T03:52:28.145Z,14.30
2022-09-04T03:55:31.270Z,14.40
2022-09-04T03:58:41.089Z,14.30
2022-09-04T04:01:46.570Z,14.20
2022-09-04T04:05:00.490Z,14.00
2022-09-04T04:08:03.389Z,14.20
2022-09-04T04:10:45.424Z,14.20
2022-09-04T04:16:08.579Z,14.20
2022-09-04T04:18:53.536Z,14.10
2022-09-04T04:24:55.791Z,14.10
2022-09-04T04:28:05.353Z,14.10
2022-09-04T04:30:54.686Z,14.10
2022-09-04T04:33:46.373Z,14.10
2022-09-04T04:36:55.532Z,14.10
2022-09-04T04:39:50.716Z,14.20
2022-09-04T04:42:28.381Z,14.30
2022-09-04T04:48:15.681Z,14.30
2022-09-04T04:53:47.073Z,14.30
2022-09-04T04:56:23.425Z,14.30
2022-09-04T04:59:03.608Z,14.30
2022-09-04T05:02:03.688Z,14.30
2022-09-04T05:04:48.628Z,14.30
2022-09-04T05:07:37.304Z,14.40
2022-09-04T05:11:09.642Z,14.40
2022-09-04T05:14:18.255Z,14.50
2022-09-04T05:19:41.956Z,14.60
2022-09-04T05:22:21.138Z,14.70
2022-09-04T05:27:33.607Z,14.70
2022-09-04T05:30:18.373Z,14.80
2022-09-04T05:38:38.631Z,14.90
2022-09-04T05:47:10.191Z,15.00
2022-09-04T05:52:40.031Z,14.90
2022-09-04T05:55:48.652Z,14.90
2022-09-04T05:59:11.832Z,15.00
2022-09-04T06:02:01.948Z,15.00
2022-09-04T06:05:06.851Z,15.00
2022-09-04T06:08:06.027Z,15.10
2022-09-04T06:10:43.276Z,15.10
2022-09-04T06:16:32.818Z,15.10
2022-09-04T06:19:27.440Z,15.20
2022-09-04T06:25:10.691Z,15.20
2022-09-04T06:27:57.836Z,15.30
2022-09-04T06:30:38.529Z,15.30
2022-09-04T06:33:23.829Z,15.30
2022-09-04T06:36:30.566Z,15.40
2022-09-04T06:39:45.657Z,15.60
2022-09-04T06:42:28.417Z,15.70
2022-09-04T06:45:33.377Z,15.70
2022-09-04T06:48:47.308Z,15.60
2022-09-04T06:51:56.618Z,15.80
2022-09-04T06:55:02.833Z,15.90
2022-09-04T07:00:13.046Z,16.00
2022-09-04T07:03:52.239Z,16.10
2022-09-04T07:06:56.308Z,16.20
2022-09-04T07:09:42.136Z,16.30
2022-09-04T07:12:48.364Z,16.00
2022-09-04T07:15:57.174Z,16.30
2022-09-04T07:18:37.086Z,16.30
2022-09-04T07:22:00.717Z,16.40
2022-09-04T07:27:34.917Z,16.60
2022-09-04T07:30:07.706Z,16.90
2022-09-04T07:33:27.308Z,17.00
2022-09-04T07:36:08.446Z,17.00
2022-09-04T07:39:11.320Z,17.00
2022-09-04T07:42:20.509Z,17.00
2022-09-04T07:45:16.613Z,17.10
2022-09-04T07:47:55.249Z,17.20
2022-09-04T07:50:32.273Z,18.80
2022-09-04T07:53:15.297Z,17.40
2022-09-04T07:55:48.677Z,17.30
2022-09-04T07:58:50.237Z,17.50
2022-09-04T08:04:22.972Z,17.80
2022-09-04T08:06:59.745Z,17.90
2022-09-04T08:10:17.738Z,17.90
2022-09-04T08:13:43.209Z,17.90
2022-09-04T08:16:44.011Z,18.00
2022-09-04T08:19:48.831Z,17.80
2022-09-04T08:23:17.971Z,18.00
2022-09-04T08:26:14.544Z,18.20
2022-09-04T08:34:48.531Z,18.50
2022-09-04T08:37:33.654Z,18.60
2022-09-04T08:40:42.951Z,18.70
2022-09-04T08:48:35.661Z,19.00
2022-09-04T08:51:14.410Z,19.00
2022-09-04T08:54:10.022Z,19.20
2022-09-04T08:57:11.011Z,19.60
2022-09-04T09:00:18.690Z,20.00
2022-09-04T09:03:34.389Z,20.10
2022-09-04T09:06:59.047Z,20.50
2022-09-04T09:09:55.038Z,20.60
2022-09-04T09:13:11.816Z,20.70
2022-09-04T09:16:15.119Z,20.80
2022-09-04T09:19:12.219Z,21.10
2022-09-04T09:25:21.368Z,21.60
2022-09-04T09:28:32.635Z,20.90
2022-09-04T09:31:50.247Z,20.80
2022-09-04T09:35:23.377Z,20.80
2022-09-04T09:38:16.213Z,21.20
2022-09-04T09:41:14.300Z,21.30
2022-09-04T09:44:19.650Z,21.10
2022-09-04T09:47:12.965Z,21.40
2022-09-04T09:50:18.004Z,21.60
2022-09-04T09:53:26.074Z,22.20
2022-09-04T09:56:07.608Z,21.90
2022-09-04T09:59:03.345Z,22.40
2022-09-04T10:05:07.605Z,22.80
2022-09-04T10:08:36.157Z,23.90
2022-09-04T10:11:23.822Z,24.00
2022-09-04T10:14:23.162Z,24.70
2022-09-04T10:17:14.947Z,24.90
2022-09-04T10:20:08.736Z,24.80
2022-09-04T10:23:15.075Z,23.60
2022-09-04T10:26:16.182Z,24.50
2022-09-04T10:29:44.608Z,25.30
2022-09-04T10:32:34.417Z,25.40
2022-09-04T10:35:50.037Z,24.80
2022-09-04T10:38:35.209Z,26.20
2022-09-04T10:41:20.945Z,26.60
2022-09-04T10:44:18.006Z,27.00
2022-09-04T10:47:28.797Z,27.00
2022-09-04T10:50:12.805Z,26.30
2022-09-04T10:53:14.779Z,26.90
2022-09-04T10:55:54.341Z,26.40
2022-09-04T10:58:48.469Z,26.90
2022-09-04T11:01:57.742Z,26.30
2022-09-04T11:04:47.826Z,26.40
2022-09-04T11:07:35.993Z,26.80
2022-09-04T11:12:51.479Z,28.60
2022-09-04T11:15:58.207Z,28.70
2022-09-04T11:18:59.652Z,28.60
2022-09-04T11:22:12.756Z,29.60
2022-09-04T11:24:49.068Z,31.20
2022-09-04T11:27:44.477Z,30.50
2022-09-04T11:31:05.542Z,30.50
2022-09-04T11:34:33.300Z,30.50
2022-09-04T11:37:33.641Z,30.30
2022-09-04T11:40:22.827Z,30.40
2022-09-04T11:43:49.422Z,30.30
2022-09-04T11:47:01.719Z,29.90
2022-09-04T11:49:50.828Z,29.80
2022-09-04T11:52:42.411Z,29.90
2022-09-04T12:00:18.374Z,29.30
2022-09-04T12:03:17.818Z,29.30
2022-09-04T12:06:07.525Z,29.20
2022-09-04T12:11:50.888Z,30.10
2022-09-04T12:15:03.797Z,29.70
2022-09-04T12:17:50.138Z,29.50
2022-09-04T12:21:04.838Z,29.10
2022-09-04T12:24:10.521Z,28.70
2022-09-04T12:30:11.925Z,29.00
2022-09-04T12:32:52.216Z,29.10
2022-09-04T12:35:51.617Z,28.90
2022-09-04T12:38:38.611Z,29.10
2022-09-04T12:41:24.101Z,28.70
2022-09-04T12:44:27.257Z,27.10
2022-09-04T12:50:07.073Z,28.70
2022-09-04T12:55:39.013Z,29.00
2022-09-04T12:58:33.904Z,28.70
2022-09-04T13:01:15.478Z,28.70
2022-09-04T13:04:22.562Z,28.70
2022-09-04T13:07:33.900Z,29.40
2022-09-04T13:10:37.475Z,28.90
2022-09-04T13:16:15.977Z,30.60
2022-09-04T13:18:50.016Z,31.10
2022-09-04T13:22:33.980Z,31.50
2022-09-04T13:25:27.356Z,30.80
2022-09-04T13:28:25.488Z,31.60
2022-09-04T13:31:36.416Z,30.30
2022-09-04T13:34:12.479Z,30.20
2022-09-04T13:37:45.532Z,30.30
2022-09-04T13:43:10.069Z,30.50
2022-09-04T13:45:50.138Z,30.50
2022-09-04T13:48:41.399Z,29.80
2022-09-04T13:51:31.070Z,29.80
2022-09-04T13:54:20.749Z,30.40
2022-09-04T13:57:05.590Z,31.00
2022-09-04T14:02:12.593Z,32.10
2022-09-04T14:04:55.545Z,32.40
2022-09-04T14:07:36.206Z,33.40
2022-09-04T14:10:23.183Z,33.00
2022-09-04T14:13:37.313Z,32.50
2022-09-04T14:16:09.137Z,33.40
2022-09-04T14:19:00.177Z,33.40
2022-09-04T14:22:06.726Z,33.70
2022-09-04T14:27:33.964Z,34.60
2022-09-04T14:30:22.434Z,33.10
2022-09-04T14:33:19.031Z,31.70
2022-09-04T14:39:03.742Z,32.20
2022-09-04T14:44:39.275Z,32.20
2022-09-04T14:49:47.459Z,32.80
2022-09-04T14:52:21.726Z,32.80
2022-09-04T14:54:59.954Z,33.20
2022-09-04T14:57:40.286Z,34.70
2022-09-04T15:00:18.591Z,32.80
2022-09-04T15:03:22.846Z,32.90
2022-09-04T15:06:07.417Z,33.50
2022-09-04T15:08:40.848Z,33.60
2022-09-04T15:11:31.106Z,33.90
2022-09-04T15:14:33.067Z,34.80
2022-09-04T15:17:08.775Z,34.80
2022-09-04T15:19:56.196Z,34.20
2022-09-04T15:24:57.286Z,34.10
2022-09-04T15:28:00.321Z,33.60
2022-09-04T15:30:42.545Z,33.60
2022-09-04T15:33:18.909Z,34.50
2022-09-04T15:36:05.197Z,34.20
2022-09-04T15:38:35.717Z,34.00
2022-09-04T15:41:50.156Z,33.60
2022-09-04T15:44:35.694Z,33.80
2022-09-04T15:47:44.764Z,33.70
2022-09-04T15:50:28.200Z,34.10
2022-09-04T15:53:30.256Z,34.00
2022-09-04T15:56:29.529Z,33.70
2022-09-04T15:59:26.085Z,33.10
2022-09-04T16:02:36.583Z,33.20
2022-09-04T16:05:41.480Z,32.70
2022-09-04T16:08:20.583Z,32.70
2022-09-04T16:11:11.734Z,32.70
2022-09-04T16:13:50.452Z,33.10
2022-09-04T16:16:53.149Z,33.50
2022-09-04T16:19:32.300Z,33.40
2022-09-04T16:24:54.278Z,34.10
2022-09-04T16:27:28.079Z,34.10
2022-09-04T16:30:05.917Z,34.20
2022-09-04T16:32:35.431Z,34.30
2022-09-04T16:35:19.446Z,34.10
2022-09-04T16:37:59.164Z,33.80
2022-09-04T16:40:35.034Z,33.60
2022-09-04T16:45:41.445Z,33.20
2022-09-04T16:48:53.224Z,33.10
2022-09-04T16:51:41.234Z,33.30
2022-09-04T16:54:37.267Z,33.50
2022-09-04T16:57:18.566Z,33.40
2022-09-04T16:59:58.770Z,33.10
2022-09-04T17:02:48.967Z,33.00
2022-09-04T17:05:46.218Z,32.80
2022-09-04T17:08:38.483Z,32.60
2022-09-04T17:11:29.698Z,32.90
2022-09-04T17:14:20.360Z,32.70
2022-09-04T17:17:03.362Z,32.50
2022-09-04T17:20:10.560Z,32.40
2022-09-04T17:29:03.380Z,32.10
2022-09-04T17:29:10.934Z,31.90
2022-09-04T17:40:55.091Z,31.10
2022-09-04T17:41:35.876Z,30.80
2022-09-04T17:45:01.197Z,30.40
2022-09-04T17:47:42.954Z,30.10
2022-09-04T17:50:18.274Z,29.90
2022-09-04T17:53:01.659Z,29.70
2022-09-04T17:55:39.043Z,29.40
2022-09-04T17:58:54.657Z,29.10
2022-09-04T18:01:33.693Z,28.90
2022-09-04T18:04:26.572Z,28.50
2022-09-04T18:07:21.877Z,28.20
2022-09-04T18:10:25.474Z,27.90
2022-09-04T18:13:37.748Z,27.50
2022-09-04T18:18:50.925Z,27.00
2022-09-04T18:22:25.123Z,26.70
2022-09-04T18:25:42.608Z,26.20
2022-09-04T18:28:25.610Z,25.90
2022-09-04T18:37:10.471Z,25.70
2022-09-04T18:37:24.342Z,25.60
2022-09-04T18:37:45.724Z,25.30
2022-09-04T18:40:50.357Z,25.10
2022-09-04T18:50:29.725Z,24.90
2022-09-04T18:52:29.932Z,24.10
2022-09-04T18:55:09.014Z,23.90
2022-09-04T18:58:11.966Z,23.70
2022-09-04T19:00:56.659Z,23.50
2022-09-04T19:06:09.699Z,23.10
2022-09-04T19:08:45.705Z,22.90
2022-09-04T19:11:26.949Z,22.60
2022-09-04T19:14:11.073Z,22.40
2022-09-04T19:19:34.193Z,21.80
2022-09-04T19:22:28.802Z,21.60
2022-09-04T19:25:04.723Z,21.60
2022-09-04T19:28:10.695Z,20.90
2022-09-04T19:31:05.241Z,21.20
2022-09-04T19:33:47.539Z,21.10
2022-09-04T19:36:54.478Z,20.90
2022-09-04T19:46:07.641Z,20.40
2022-09-04T19:46:07.786Z,20.70
2022-09-04T19:46:15.288Z,20.30
2022-09-04T19:51:59.552Z,20.30
2022-09-04T19:55:59.626Z,20.10
2022-09-04T19:58:46.388Z,19.80
2022-09-04T20:01:17.854Z,19.80
2022-09-04T20:04:24.055Z,19.80
2022-09-04T20:07:02.738Z,19.70
2022-09-04T20:09:42.395Z,19.60
2022-09-04T20:12:26.157Z,19.50
2022-09-04T20:15:28.335Z,19.50
2022-09-04T20:18:13.051Z,17.40
2022-09-04T20:21:08.693Z,19.50
2022-09-04T20:23:59.613Z,19.40
2022-09-04T20:26:45.930Z,19.40
2022-09-04T20:32:22.511Z,19.20
2022-09-04T20:35:16.296Z,19.20
2022-09-04T20:37:53.864Z,19.00
2022-09-04T20:40:37.794Z,18.80
2022-09-04T20:43:51.790Z,18.70
2022-09-04T20:52:38.945Z,18.60
2022-09-04T20:52:49.857Z,18.50
2022-09-04T20:53:24.241Z,18.40
2022-09-04T20:56:50.688Z,18.40
2022-09-04T21:03:09.146Z,18.20
2022-09-04T21:06:13.183Z,18.10
2022-09-04T21:14:45.902Z,18.50
2022-09-04T21:18:04.004Z,18.30
2022-09-04T21:21:10.656Z,18.10
2022-09-04T21:24:24.476Z,18.20
2022-09-04T21:27:23.686Z,18.00
2022-09-04T21:30:15.504Z,17.90
2022-09-04T21:33:27.188Z,17.80
2022-09-04T21:36:25.829Z,17.70
2022-09-04T21:39:49.603Z,17.60
2022-09-04T21:43:09.078Z,17.60
2022-09-04T21:45:51.965Z,17.60
2022-09-04T21:49:08.998Z,17.50
2022-09-04T21:52:00.792Z,17.40
2022-09-04T21:58:10.139Z,17.40
2022-09-04T22:02:30.166Z,17.40
2022-09-04T22:02:40.620Z,17.40
2022-09-04T22:04:50.327Z,17.40
2022-09-04T22:10:52.871Z,17.40
2022-09-04T22:13:38.858Z,17.30
2022-09-04T22:14:14.093Z,17.20
2022-09-04T22:17:13.778Z,17.00
2022-09-04T22:20:34.886Z,16.90
2022-09-04T22:24:14.793Z,17.00
2022-09-04T22:26:48.350Z,16.90
2022-09-04T22:30:05.205Z,16.90
2022-09-04T22:33:03.429Z,16.80
2022-09-04T22:36:04.588Z,16.70
2022-09-04T22:38:57.021Z,16.60
2022-09-04T22:42:05.569Z,16.70
2022-09-04T22:45:17.320Z,16.70
2022-09-04T22:48:21.413Z,16.80
2022-09-04T22:51:51.706Z,16.70
2022-09-04T22:54:31.193Z,16.50
2022-09-04T22:57:10.361Z,16.40
2022-09-04T23:00:12.296Z,16.40
2022-09-04T23:03:24.029Z,16.40
2022-09-04T23:07:44.334Z,16.40
2022-09-04T23:13:42.710Z,16.40
2022-09-04T23:13:59.986Z,16.50
2022-09-04T23:16:14.474Z,16.40
2022-09-04T23:26:51.088Z,16.30
2022-09-04T23:26:51.090Z,16.70
2022-09-04T23:28:28.058Z,16.30
2022-09-04T23:31:37.574Z,16.30
2022-09-04T23:34:44.054Z,16.20
2022-09-04T23:37:27.858Z,16.20
2022-09-04T23:40:44.411Z,16.20
2022-09-04T23:43:36.350Z,16.10
2022-09-04T23:46:34.637Z,16.20
2022-09-04T23:51:59.506Z,16.10
2022-09-04T23:55:04.889Z,16.10
